Data for 01/14/2015

Time Sea-Level Adjusted Pressure Absolute Pressure Temperature Relative Humidity Dew Point   
(mb) (inHg) (mb) (inHg) (C) (F) (%) (C) (F)
00:05 1026 30.3 855 25.25 -6.3 20.6 75 -10.1 13.9
00:10 1026 30.3 855 25.25 -6.4 20.4 75 -10.2 13.7
00:15 1026 30.3 855 25.25 -6.5 20.4 75 -10.2 13.6
00:20 1026 30.3 855 25.25 -6.5 20.3 75 -10.2 13.7
00:25 1026 30.3 855 25.25 -6.5 20.4 76 -10 14
00:30 1026 30.3 855 25.25 -6.4 20.5 75 -10 13.9
00:35 1026 30.3 855 25.25 -6.6 20.2 76 -10.2 13.7
00:40 1026 30.3 855 25.25 -6.9 19.6 77 -10.3 13.5
00:45 1026 30.3 855 25.25 -7.1 19.3 77 -10.5 13.2
00:50 1026 30.3 855 25.25 -7.1 19.3 76 -10.5 13
00:55 1026 30.3 855 25.25 -7 19.4 77 -10.4 13.3
01:00 1026 30.3 855 25.25 -7.1 19.2 78 -10.4 13.3
01:05 1026 30.3 855 25.25 -7.2 19 78 -10.4 13.2
01:10 1026 30.3 855 25.25 -7.3 19 79 -10.3 13.4
01:15 1026 30.3 855 25.25 -7.3 18.9 79 -10.4 13.3
01:20 1026 30.3 855 25.25 -7.3 18.8 79 -10.4 13.3
01:25 1026 30.3 855 25.25 -7.3 18.8 79 -10.5 13.2
01:30 1026 30.3 855 25.25 -7.4 18.7 79 -10.5 13.1
01:35 1026 30.3 855 25.25 -7.7 18.2 80 -10.6 12.9
01:40 1026 30.3 855 25.25 -7.5 18.5 78 -10.7 12.8
01:45 1026 30.3 855 25.25 -7.4 18.7 80 -10.2 13.6
01:50 1026 30.3 855 25.25 -7.4 18.7 79 -10.5 13.1
01:55 1026 30.3 855 25.25 -7.5 18.6 77 -10.8 12.6
02:00 1026 30.3 855 25.25 -7.9 17.9 80 -10.8 12.6
02:05 1026 30.3 855 25.25 -8.2 17.3 81 -10.9 12.4
02:10 1026 30.3 855 25.25 -8.3 17 81 -11.1 12
02:15 1025 30.27 855 25.25 -8.3 17.1 80 -11.2 11.9
02:20 1025 30.27 855 25.25 -8.2 17.3 78 -11.3 11.7
02:25 1025 30.27 854 25.22 -8 17.5 77 -11.4 11.6
02:30 1025 30.27 854 25.22 -8 17.7 77 -11.3 11.7
02:35 1025 30.27 854 25.22 -7.8 17.9 77 -11.2 11.9
02:40 1025 30.27 854 25.22 -7.9 17.9 77 -11.2 11.9
02:45 1025 30.27 854 25.22 -8 17.6 78 -11.2 11.9
02:50 1025 30.27 854 25.22 -8 17.6 79 -11.1 12.1
02:55 1025 30.27 854 25.22 -8.1 17.5 78 -11.2 11.9
03:00 1025 30.27 854 25.22 -8.1 17.4 77 -11.4 11.4
03:05 1025 30.27 854 25.22 -8.6 16.6 80 -11.5 11.3
03:10 1025 30.27 854 25.22 -8.5 16.6 79 -11.6 11.1
03:15 1025 30.27 854 25.22 -8.6 16.5 80 -11.5 11.3
03:20 1025 30.27 854 25.22 -8.3 17 79 -11.3 11.6
03:25 1025 30.27 854 25.22 -8.5 16.8 80 -11.4 11.5
03:30 1025 30.27 854 25.22 -8.3 17 79 -11.4 11.5
03:35 1025 30.27 854 25.22 -8.3 17.1 79 -11.4 11.5
03:40 1025 30.27 854 25.22 -8 17.6 82 -10.5 13.1
03:45 1025 30.27 854 25.22 -7.8 17.9 80 -10.6 12.9
03:50 1025 30.27 854 25.22 -7.8 18 79 -10.8 12.6
03:55 1025 30.27 854 25.22 -8 17.7 78 -11.1 12.1
04:00 1025 30.27 854 25.22 -8.2 17.2 79 -11.2 11.8
04:05 1025 30.27 854 25.22 -8.2 17.3 78 -11.3 11.7
04:10 1025 30.27 854 25.22 -8 17.6 78 -11.2 11.9
04:15 1025 30.27 854 25.22 -8.1 17.4 77 -11.4 11.5
04:20 1025 30.27 854 25.22 -8.1 17.4 78 -11.3 11.7
04:25 1025 30.27 854 25.22 -8.1 17.4 79 -11.2 11.9
04:30 1025 30.27 854 25.22 -8 17.6 76 -11.6 11.2
04:35 1025 30.27 854 25.22 -8.4 16.8 82 -10.9 12.3
04:40 1025 30.27 855 25.25 -8.4 16.9 77 -11.8 10.7
04:45 1025 30.27 854 25.22 -8.4 16.8 77 -11.8 10.7
04:50 1025 30.27 854 25.22 -8.7 16.4 78 -11.8 10.8
04:55 1025 30.27 854 25.22 -8.8 16.1 79 -11.9 10.7
05:00 1025 30.27 854 25.22 -8.8 16.3 81 -11.5 11.3
05:05 1025 30.27 854 25.22 -8.4 16.8 78 -11.6 11.2
05:10 1025 30.27 854 25.22 -8.2 17.3 77 -11.6 11.1
05:15 1025 30.27 854 25.22 -8 17.6 76 -11.6 11.1
05:20 1025 30.27 854 25.22 -7.8 18 77 -11.2 11.8
05:25 1025 30.27 854 25.22 -7.6 18.4 75 -11.3 11.7
05:30 1025 30.27 854 25.22 -7.4 18.6 78 -10.7 12.7
05:35 1025 30.27 854 25.22 -7.7 18.2 77 -11 12.2
05:40 1025 30.27 854 25.22 -7.8 18.1 79 -10.7 12.7
05:45 1025 30.27 854 25.22 -7.5 18.5 77 -10.8 12.5
05:50 1025 30.27 854 25.22 -7.4 18.6 76 -10.9 12.3
05:55 1025 30.27 854 25.22 -7.8 18 76 -11.3 11.7
06:00 1025 30.27 854 25.22 -7.9 17.8 76 -11.4 11.4
06:05 1025 30.27 854 25.22 -8.1 17.5 76 -11.6 11
06:10 1025 30.27 854 25.22 -7.9 17.8 75 -11.6 11.2
06:15 1025 30.27 854 25.22 -7.6 18.3 78 -10.8 12.6
06:20 1025 30.27 854 25.22 -7.3 18.9 76 -10.9 12.4
06:25 1025 30.27 854 25.22 -7.6 18.2 77 -11 12.1
06:30 1025 30.27 854 25.22 -7.8 17.9 76 -11.3 11.6
06:35 1025 30.27 854 25.22 -8.1 17.5 77 -11.4 11.4
06:40 1025 30.27 854 25.22 -8.2 17.2 77 -11.6 11.1
06:45 1025 30.27 854 25.22 -8.3 17.1 78 -11.5 11.3
06:50 1025 30.27 854 25.22 -8.1 17.3 79 -11.2 11.8
06:55 1025 30.27 854 25.22 -7.9 17.7 83 -10.4 13.4
07:00 1025 30.27 854 25.22 -7.7 18.1 78 -10.9 12.4
07:05 1025 30.27 854 25.22 -8 17.6 77 -11.3 11.6
07:10 1025 30.27 854 25.22 -8 17.6 77 -11.4 11.6
07:15 1025 30.27 854 25.22 -8.1 17.4 78 -11.3 11.7
07:20 1025 30.27 854 25.22 -8.4 17 79 -11.4 11.5
07:25 1025 30.27 854 25.22 -8.5 16.6 80 -11.5 11.4
07:30 1025 30.27 854 25.22 -8.7 16.4 79 -11.6 11.1
07:35 1025 30.27 854 25.22 -8.7 16.3 80 -11.5 11.2
07:40 1025 30.27 854 25.22 -8.2 17.3 77 -11.5 11.3
07:45 1025 30.27 854 25.22 -7.9 17.7 77 -11.3 11.6
07:50 1025 30.27 854 25.22 -8.2 17.2 77 -11.5 11.3
07:55 1025 30.27 854 25.22 -8.2 17.2 77 -11.5 11.3
08:00 1025 30.27 854 25.22 -8.6 16.6 79 -11.5 11.2
08:05 1025 30.27 854 25.22 -8.6 16.5 79 -11.6 11
08:10 1025 30.27 854 25.22 -8.9 16 80 -11.8 10.8
08:15 1025 30.27 854 25.22 -9.3 15.3 84 -11.6 11.2
08:20 1025 30.27 854 25.22 -8.7 16.4 82 -11.3 11.7
08:25 1025 30.27 854 25.22 -8.1 17.4 79 -11.2 11.8
08:30 1025 30.27 854 25.22 -8.5 16.7 78 -11.7 10.9
08:35 1025 30.27 854 25.22 -9.3 15.2 82 -11.8 10.7
08:40 1025 30.27 854 25.22 -9.5 15 83 -11.9 10.6
08:45 1025 30.27 854 25.22 -9.4 15.1 82 -11.9 10.6
08:50 1025 30.27 854 25.22 -9.5 14.9 82 -12 10.4
08:55 1025 30.27 854 25.22 -9.5 14.8 83 -12 10.5
09:00 1025 30.27 854 25.22 -9.3 15.3 84 -11.6 11.2
09:05 1025 30.27 854 25.22 -8.6 16.5 80 -11.6 11.2
09:10 1025 30.27 854 25.22 -8.3 17.1 78 -11.4 11.5
09:15 1025 30.27 854 25.22 -8.3 17.1 81 -11.1 12.1
09:20 1025 30.27 855 25.25 -8 17.7 78 -11.2 11.9
09:25 1025 30.27 855 25.25 -8 17.6 77 -11.3 11.6
09:30 1025 30.27 855 25.25 -8 17.6 79 -11.1 12
09:35 1025 30.27 855 25.25 -7.8 17.9 78 -11.1 12.1
09:40 1025 30.27 855 25.25 -7.7 18.1 76 -11.2 11.8
09:45 1025 30.27 855 25.25 -7.8 17.9 75 -11.5 11.3
09:50 1025 30.27 855 25.25 -8.1 17.4 76 -11.7 10.9
09:55 1025 30.27 855 25.25 -8.3 17 78 -11.6 11.2
10:00 1025 30.27 855 25.25 -8.4 17 77 -11.8 10.8
10:05 1025 30.27 855 25.25 -8.1 17.5 77 -11.4 11.5
10:10 1025 30.27 855 25.25 -7.6 18.2 76 -11.2 11.9
10:15 1025 30.27 855 25.25 -6.9 19.6 72 -11.1 12
10:20 1025 30.27 854 25.22 -6.6 20.1 72 -10.9 12.3
10:25 1025 30.27 854 25.22 -6.6 20 71 -11.1 12.1
10:30 1025 30.27 854 25.22 -6.5 20.2 70 -11.2 11.9
10:35 1025 30.27 855 25.25 -6.3 20.7 70 -11 12.3
10:40 1025 30.27 855 25.25 -6 21.1 69 -10.8 12.6
10:45 1025 30.27 855 25.25 -5.7 21.7 69 -10.5 13.2
10:50 1025 30.27 855 25.25 -4.9 23.2 66 -10.4 13.3
10:55 1025 30.27 855 25.25 -4.4 24 65 -10 13.9
11:00 1025 30.27 855 25.25 -4.5 23.9 67 -9.8 14.3
11:05 1025 30.27 855 25.25 -4.4 24 66 -9.8 14.3
11:10 1025 30.27 855 25.25 -4.1 24.6 64 -9.9 14.2
11:15 1025 30.27 855 25.25 -3.6 25.6 62 -9.8 14.4
11:20 1025 30.27 855 25.25 -3.1 26.4 61 -9.5 14.8
11:25 1025 30.27 855 25.25 -2.5 27.4 60 -9.3 15.2
11:30 1025 30.27 855 25.25 -2.3 27.8 59 -9.4 15.1
11:35 1025 30.27 855 25.25 -1.7 28.9 56 -9.4 15.2
11:40 1025 30.27 855 25.25 -1.7 28.9 57 -9.1 15.5
11:45 1025 30.27 855 25.25 -1.9 28.6 57 -9.2 15.4
11:50 1026 30.3 855 25.25 -2 28.5 59 -9 15.8
11:55 1026 30.3 855 25.25 -2.2 28.1 58 -9.4 15.1
12:00 1026 30.3 855 25.25 -1.7 29 55 -9.5 14.9
12:05 1026 30.3 855 25.25 -1.3 29.7 54 -9.5 15
12:10 1026 30.3 855 25.25 -1.6 29.1 56 -9.3 15.2
12:15 1026 30.3 855 25.25 -1.9 28.6 56 -9.6 14.8
12:20 1026 30.3 855 25.25 -1.6 29.1 56 -9.3 15.2
12:25 1026 30.3 855 25.25 -0.9 30.4 54 -9.1 15.7
12:30 1025 30.27 855 25.25 -1.2 29.8 54 -9.3 15.2
12:35 1025 30.27 855 25.25 -1.4 29.6 58 -8.5 16.6
12:40 1025 30.27 855 25.25 -1.4 29.5 55 -9.4 15.1
12:45 1025 30.27 855 25.25 -1 30.2 55 -8.9 16
12:50 1025 30.27 855 25.25 -0.8 30.5 53 -9.3 15.2
12:55 1025 30.27 854 25.22 -0.6 31 53 -9 15.8
13:00 1025 30.27 854 25.22 -1.2 29.9 56 -9 15.8
13:05 1025 30.27 854 25.22 -2 28.4 57 -9.4 15.1
13:10 1025 30.27 854 25.22 -2 28.3 57 -9.4 15.1
13:15 1025 30.27 854 25.22 -2 28.3 57 -9.4 15
13:20 1025 30.27 854 25.22 -1.8 28.7 55 -9.7 14.6
13:25 1025 30.27 854 25.22 -1.2 29.8 55 -9.2 15.5
13:30 1025 30.27 854 25.22 -0.8 30.5 53 -9.1 15.5
13:35 1025 30.27 854 25.22 -0.9 30.3 54 -9.2 15.5
13:40 1025 30.27 854 25.22 -0.6 30.9 53 -9 15.8
13:45 1025 30.27 854 25.22 -0.5 31.2 52 -9.1 15.6
13:50 1024 30.24 854 25.22 -1 30.3 53 -9.4 15.2
13:55 1024 30.24 854 25.22 -1 30.2 53 -9.5 15
14:00 1024 30.24 853 25.19 -0.9 30.3 54 -9.2 15.5
14:05 1024 30.24 853 25.19 -0.3 31.5 52 -9 15.9
14:10 1024 30.24 853 25.19 -0 32 50 -9.3 15.3
14:15 1024 30.24 853 25.19 0 32.1 51 -8.9 15.9
14:20 1024 30.24 853 25.19 -0.5 31.1 52 -9.3 15.2
14:25 1024 30.24 853 25.19 -0.3 31.5 50 -9.4 15.1
14:30 1024 30.24 853 25.19 0.1 32.1 49 -9.5 14.9
14:35 1024 30.24 853 25.19 0.2 32.4 49 -9.3 15.3
14:40 1024 30.24 853 25.19 -0.2 31.7 51 -9.1 15.6
14:45 1024 30.24 853 25.19 -0.2 31.6 49 -9.7 14.5
14:50 1024 30.24 853 25.19 0 32.1 49 -9.5 14.8
14:55 1024 30.24 853 25.19 0.4 32.8 48 -9.4 15.1
15:00 1024 30.24 853 25.19 0.6 33.2 48 -9.1 15.6
15:05 1024 30.24 853 25.19 0.9 33.7 46 -9.4 15
15:10 1024 30.24 853 25.19 1.3 34.4 46 -9.1 15.6
15:15 1024 30.24 853 25.19 1.3 34.3 44 -9.7 14.6
15:20 1024 30.24 853 25.19 1.1 34 46 -9.3 15.3
15:25 1024 30.24 853 25.19 -0.1 31.9 51 -9 15.7
15:30 1024 30.24 853 25.19 -0.5 31 52 -9.3 15.2
15:35 1024 30.24 853 25.19 -0.3 31.5 50 -9.4 15
15:40 1024 30.24 853 25.19 0 32.1 49 -9.4 15
15:45 1024 30.24 853 25.19 0.3 32.6 47 -9.7 14.5
15:50 1024 30.24 853 25.19 0.3 32.6 47 -9.6 14.7
15:55 1024 30.24 853 25.19 0.5 33 47 -9.6 14.7
16:00 1024 30.24 853 25.19 0.7 33.3 46 -9.6 14.6
16:05 1024 30.24 853 25.19 1.1 33.9 44 -9.8 14.4
16:10 1024 30.24 853 25.19 1 33.7 46 -9.5 14.8
16:15 1024 30.24 853 25.19 1.1 34 44 -9.9 14.1
16:20 1024 30.24 853 25.19 1.1 33.9 44 -9.8 14.4
16:25 1024 30.24 853 25.19 1.4 34.4 43 -10 14.1
16:30 1024 30.24 854 25.22 1.5 34.6 42 -10.1 13.8
16:35 1024 30.24 854 25.22 1.7 35.1 41 -10 13.9
16:40 1024 30.24 854 25.22 1.8 35.3 43 -9.4 15
16:45 1024 30.24 854 25.22 1.4 34.6 44 -9.6 14.7
16:50 1024 30.24 854 25.22 0.6 33 47 -9.5 14.8
16:55 1024 30.24 854 25.22 0.9 33.5 45 -9.8 14.4
17:00 1024 30.24 854 25.22 1.2 34.2 45 -9.4 15.1
17:05 1024 30.24 854 25.22 1 33.8 48 -8.8 16.2
17:10 1024 30.24 854 25.22 0.5 32.9 49 -8.9 16
17:15 1024 30.24 854 25.22 -0.1 31.7 52 -9 15.9
17:20 1025 30.27 854 25.22 -0.2 31.6 50 -9.3 15.2
17:25 1025 30.27 854 25.22 -0.1 31.8 51 -9.1 15.7
17:30 1025 30.27 854 25.22 0 32.1 50 -9.2 15.4
17:35 1025 30.27 854 25.22 0.1 32.1 51 -9 15.8
17:40 1025 30.27 854 25.22 -0.1 31.8 51 -9.1 15.7
17:45 1025 30.27 854 25.22 -0.1 31.9 51 -9.1 15.7
17:50 1025 30.27 854 25.22 -0.7 30.8 54 -9 15.8
17:55 1025 30.27 854 25.22 -1 30.3 55 -9 15.9
18:00 1025 30.27 854 25.22 -1.5 29.3 57 -8.9 16
18:05 1025 30.27 854 25.22 -2.1 28.3 58 -9.1 15.5
18:10 1025 30.27 854 25.22 -2.5 27.5 59 -9.4 15.1
18:15 1025 30.27 854 25.22 -2.7 27.2 59 -9.5 14.9
18:20 1025 30.27 854 25.22 -2.7 27.2 59 -9.7 14.6
18:25 1025 30.27 854 25.22 -2.4 27.6 57 -9.7 14.5
18:30 1025 30.27 854 25.22 -2.3 27.9 58 -9.5 14.8
18:35 1025 30.27 854 25.22 -2.3 27.8 57 -9.6 14.6
18:40 1025 30.27 854 25.22 -2.2 28 58 -9.4 15.1
18:45 1025 30.27 854 25.22 -2.5 27.5 59 -9.4 15.1
18:50 1025 30.27 854 25.22 -2.9 26.8 61 -9.3 15.2
18:55 1025 30.27 854 25.22 -3.2 26.3 63 -9.3 15.3
19:00 1025 30.27 854 25.22 -3.4 25.9 63 -9.5 14.8
19:05 1025 30.27 854 25.22 -3.2 26.2 62 -9.5 14.8
19:10 1025 30.27 854 25.22 -3.1 26.4 62 -9.5 14.9
19:15 1025 30.27 854 25.22 -3.1 26.5 62 -9.4 15
19:20 1025 30.27 854 25.22 -2.9 26.8 61 -9.4 15.1
19:25 1025 30.27 854 25.22 -2.9 26.8 62 -9.2 15.4
19:30 1025 30.27 854 25.22 -3.1 26.5 63 -9.1 15.6
19:35 1025 30.27 854 25.22 -3.1 26.4 64 -9 15.8
19:40 1025 30.27 854 25.22 -2.9 26.7 63 -9.1 15.7
19:45 1025 30.27 854 25.22 -2.6 27.3 62 -9 15.8
19:50 1025 30.27 854 25.22 -3.3 26 66 -8.9 16
19:55 1025 30.27 854 25.22 -3.7 25.3 67 -9.1 15.7
20:00 1025 30.27 854 25.22 -3.7 25.3 71 -8.2 17.3
20:05 1025 30.27 854 25.22 -3.6 25.5 71 -8.1 17.3
20:10 1025 30.27 854 25.22 -4 24.8 72 -8.4 16.9
20:15 1025 30.27 854 25.22 -4.3 24.3 73 -8.5 16.8
20:20 1025 30.27 854 25.22 -4.3 24.2 73 -8.4 16.9
20:25 1025 30.27 854 25.22 -4.1 24.7 72 -8.3 17
20:30 1025 30.27 854 25.22 -3.6 25.5 71 -8.2 17.3
20:35 1025 30.27 854 25.22 -2.6 27.3 65 -8.3 17
20:40 1025 30.27 854 25.22 -3.4 25.9 68 -8.5 16.6
20:45 1025 30.27 854 25.22 -4.4 24.1 73 -8.5 16.7
20:50 1025 30.27 854 25.22 -4.7 23.6 77 -8.1 17.4
20:55 1025 30.27 854 25.22 -3.9 25 75 -7.7 18.2
21:00 1025 30.27 854 25.22 -3.3 26 74 -7.3 18.9
21:05 1025 30.27 854 25.22 -3 26.6 72 -7.3 18.8
21:10 1025 30.27 854 25.22 -3 26.7 70 -7.6 18.3
21:15 1025 30.27 854 25.22 -3.3 26 71 -7.9 17.8
21:20 1025 30.27 854 25.22 -3.9 25 71 -8.3 17
21:25 1025 30.27 854 25.22 -4.1 24.6 71 -8.6 16.6
21:30 1025 30.27 854 25.22 -4.2 24.5 70 -8.8 16.2
21:35 1025 30.27 854 25.22 -4.1 24.6 70 -8.7 16.3
21:40 1025 30.27 854 25.22 -4 24.8 70 -8.7 16.4
21:45 1025 30.27 854 25.22 -3.6 25.5 69 -8.5 16.7
21:50 1025 30.27 854 25.22 -3.6 25.6 70 -8.3 17.1
21:55 1025 30.27 854 25.22 -3.6 25.6 73 -7.8 18
22:00 1025 30.27 854 25.22 -3.6 25.5 74 -7.7 18.2
22:05 1025 30.27 854 25.22 -4 24.8 73 -8.2 17.3
22:10 1025 30.27 854 25.22 -4.5 24 74 -8.4 16.9
22:15 1025 30.27 854 25.22 -4.4 24 74 -8.4 16.9
22:20 1025 30.27 854 25.22 -4.6 23.8 74 -8.5 16.7
22:25 1025 30.27 854 25.22 -4.4 24 77 -7.9 17.8
22:30 1025 30.27 854 25.22 -3.6 25.5 72 -8 17.6
22:35 1025 30.27 854 25.22 -3.4 25.8 71 -8.1 17.5
22:40 1025 30.27 854 25.22 -3.7 25.3 70 -8.4 16.8
22:45 1025 30.27 854 25.22 -4.2 24.5 71 -8.7 16.4
22:50 1025 30.27 854 25.22 -4 24.9 71 -8.6 16.6
22:55 1025 30.27 854 25.22 -3.8 25.1 71 -8.4 16.9
23:00 1025 30.27 854 25.22 -3.9 25 70 -8.5 16.6
23:05 1025 30.27 854 25.22 -3.8 25.1 68 -8.9 16
23:10 1025 30.27 854 25.22 -3.8 25.2 69 -8.7 16.3
23:15 1025 30.27 854 25.22 -3.7 25.3 68 -8.8 16.2
23:20 1025 30.27 854 25.22 -3.5 25.6 67 -8.8 16.2
23:25 1025 30.27 854 25.22 -3.4 25.9 66 -8.8 16.1
23:30 1025 30.27 854 25.22 -3.4 25.9 67 -8.7 16.4
23:35 1025 30.27 854 25.22 -3.5 25.7 68 -8.6 16.5
23:40 1025 30.27 854 25.22 -3.7 25.4 68 -8.6 16.4
23:45 1025 30.27 854 25.22 -3.7 25.4 69 -8.6 16.5
23:50 1025 30.27 854 25.22 -4.1 24.6 70 -8.8 16.2
23:55 1025 30.27 854 25.22 -4.4 24 72 -8.8 16.2
24:00 1025 30.27 854 25.22 -4.6 23.8 72 -8.9 15.9